Watertown Regional Airport
KATY : now visible

Airfield :











YOU CAN JOIN US ON...

 
LOGIN :

Register | Disclaimer

   EN    FR    IT 

 









Legend :    VFR   Marginal VFR   IFR   Intensive IFR   Very Intensive IFR
Visi :
Ceiling :
>= 8 km
>= 3000ft
5 to 8 km
1000 to 3000 ft
1500m to 5 km
500 to 1000 ft
800 to 1500m
200 to 500 ft
< 800m
< 200 ft
Symbols :   Thunderstorms  Fog  Heavy snow  Heavy precipitations  Wind > 20 kt






- Airport Elevation : 1749 ft
- IATA code : ATY


KATY - Watertown Regional

CURRENT METAR :
  • 231353Z AUTO 30019G29KT 10SM BKN019 07/03 A2980 RMK AO2 PK WND 31030/1340 SLP099 T00720028

EXPIRED METARs :
  • 231253Z AUTO 30018G27KT 10SM FEW021 06/02 A2977 RMK AO2 PK WND 30027/1252 SLP087 T00610022
  • 231153Z AUTO 28015G22KT 10SM CLR 05/01 A2974 RMK AO2 SLP076 T00500006 10078 20044 53013
  • 231053Z AUTO 27014G22KT 10SM CLR 06/00 A2973 RMK AO2 SLP069 T00560000
  • 230953Z AUTO 27013KT 10SM CLR 06/M01 A2972 RMK AO2 SLP064 T00611011

TAF KATY
Valid from the 23 at 14:00 until the 24 at 12:00 UTC


231418Z 2314/2412 31020G30KT P6SM BKN025
TEMPO 2314/2316 BKN018
FM231600 33021G29KT P6SM BKN035
FM232200 36016G24KT P6SM FEW170
FM240100 01009KT P6SM SKC
FM240700 09004KT P6SM SKC
KZMP FIR / North America



MET'MAP, your aeronautical weather chart ! - Copyright ORBIFLY December 2007 - Disclaimer

ORBIFLY MET'MAP TEAM :

Programming & Development : Alexandra Zaïnal
Original concept : Baudouin d'Aumeries
Technical & hardware support : Manuel Goepfert
Assistance : Marc-Olivier Méhu




SOURCES & CREDITS :

   NOAA       Earth
Advisory